sensor_id;sensor_type;location;lat;lon;timestamp;P1;durP1;ratioP1;P2;durP2;ratioP2
48861;SDS011;34681;49.188;-0.374;2023-03-13T00:01:50;13.53;;;6.63;;
48861;SDS011;34681;49.188;-0.374;2023-03-13T00:04:15;16.23;;;5.90;;
48861;SDS011;34681;49.188;-0.374;2023-03-13T00:06:41;17.43;;;7.53;;
48861;SDS011;34681;49.188;-0.374;2023-03-13T00:09:07;11.43;;;5.77;;
48861;SDS011;34681;49.188;-0.374;2023-03-13T00:11:35;10.17;;;5.30;;
48861;SDS011;34681;49.188;-0.374;2023-03-13T00:14:01;13.57;;;6.10;;
48861;SDS011;34681;49.188;-0.374;2023-03-13T00:16:28;12.40;;;6.80;;
48861;SDS011;34681;49.188;-0.374;2023-03-13T00:18:54;15.70;;;6.57;;
48861;SDS011;34681;49.188;-0.374;2023-03-13T00:21:21;17.23;;;5.93;;
48861;SDS011;34681;49.188;-0.374;2023-03-13T00:23:49;14.27;;;6.10;;
48861;SDS011;34681;49.188;-0.374;2023-03-13T00:26:16;13.23;;;6.17;;
48861;SDS011;34681;49.188;-0.374;2023-03-13T00:28:46;11.67;;;5.60;;
48861;SDS011;34681;49.188;-0.374;2023-03-13T00:33:40;12.07;;;4.90;;
48861;SDS011;34681;49.188;-0.374;2023-03-13T00:36:11;11.97;;;5.93;;
48861;SDS011;34681;49.188;-0.374;2023-03-13T00:38:39;10.90;;;5.60;;
48861;SDS011;34681;49.188;-0.374;2023-03-13T00:41:09;8.97;;;4.30;;
48861;SDS011;34681;49.188;-0.374;2023-03-13T00:43:39;11.87;;;4.97;;
48861;SDS011;34681;49.188;-0.374;2023-03-13T00:46:06;18.47;;;6.40;;
48861;SDS011;34681;49.188;-0.374;2023-03-13T00:48:32;10.83;;;5.70;;
48861;SDS011;34681;49.188;-0.374;2023-03-13T00:50:58;11.07;;;5.10;;
48861;SDS011;34681;49.188;-0.374;2023-03-13T00:53:24;9.43;;;4.30;;
48861;SDS011;34681;49.188;-0.374;2023-03-13T00:58:25;11.97;;;5.43;;
48861;SDS011;34681;49.188;-0.374;2023-03-13T01:00:52;14.40;;;5.27;;
48861;SDS011;34681;49.188;-0.374;2023-03-13T01:03:18;11.73;;;4.73;;
48861;SDS011;34681;49.188;-0.374;2023-03-13T01:05:44;9.73;;;5.40;;
48861;SDS011;34681;49.188;-0.374;2023-03-13T01:08:10;14.40;;;5.47;;
48861;SDS011;34681;49.188;-0.374;2023-03-13T01:10:36;6.30;;;4.03;;
48861;SDS011;34681;49.188;-0.374;2023-03-13T01:13:01;9.40;;;4.50;;
48861;SDS011;34681;49.188;-0.374;2023-03-13T01:15:29;12.10;;;5.10;;
48861;SDS011;34681;49.188;-0.374;2023-03-13T01:17:55;12.27;;;3.90;;
48861;SDS011;34681;49.188;-0.374;2023-03-13T01:20:20;8.30;;;4.60;;
48861;SDS011;34681;49.188;-0.374;2023-03-13T01:22:46;9.43;;;5.30;;
48861;SDS011;34681;49.188;-0.374;2023-03-13T01:25:11;17.60;;;4.70;;
48861;SDS011;34681;49.188;-0.374;2023-03-13T01:27:36;9.00;;;3.90;;
48861;SDS011;34681;49.188;-0.374;2023-03-13T01:30:02;8.20;;;3.77;;
48861;SDS011;34681;49.188;-0.374;2023-03-13T01:32:27;9.23;;;4.67;;
48861;SDS011;34681;49.188;-0.374;2023-03-13T01:34:53;7.70;;;3.93;;
48861;SDS011;34681;49.188;-0.374;2023-03-13T01:37:18;11.10;;;4.53;;
48861;SDS011;34681;49.188;-0.374;2023-03-13T01:39:43;8.77;;;4.03;;
48861;SDS011;34681;49.188;-0.374;2023-03-13T01:42:09;8.20;;;3.77;;
48861;SDS011;34681;49.188;-0.374;2023-03-13T01:44:50;11.53;;;4.70;;
48861;SDS011;34681;49.188;-0.374;2023-03-13T01:47:20;10.13;;;4.30;;
48861;SDS011;34681;49.188;-0.374;2023-03-13T01:49:46;7.17;;;3.40;;
48861;SDS011;34681;49.188;-0.374;2023-03-13T01:52:17;5.93;;;3.80;;
48861;SDS011;34681;49.188;-0.374;2023-03-13T01:54:49;10.00;;;3.60;;
48861;SDS011;34681;49.188;-0.374;2023-03-13T01:57:26;8.27;;;3.37;;
48861;SDS011;34681;49.188;-0.374;2023-03-13T02:00:03;8.20;;;4.00;;
48861;SDS011;34681;49.188;-0.374;2023-03-13T02:02:32;11.73;;;3.57;;
48861;SDS011;34681;49.188;-0.374;2023-03-13T02:05:00;7.00;;;3.33;;
48861;SDS011;34681;49.188;-0.374;2023-03-13T02:10:43;9.47;;;3.20;;
48861;SDS011;34681;49.188;-0.374;2023-03-13T02:13:15;7.37;;;3.20;;
48861;SDS011;34681;49.188;-0.374;2023-03-13T02:15:42;4.13;;;3.20;;
48861;SDS011;34681;49.188;-0.374;2023-03-13T02:18:08;9.30;;;3.83;;
48861;SDS011;34681;49.188;-0.374;2023-03-13T02:20:35;7.10;;;3.07;;
48861;SDS011;34681;49.188;-0.374;2023-03-13T02:25:48;7.53;;;3.47;;
48861;SDS011;34681;49.188;-0.374;2023-03-13T02:28:18;7.80;;;2.90;;
48861;SDS011;34681;49.188;-0.374;2023-03-13T02:30:46;8.03;;;3.90;;
48861;SDS011;34681;49.188;-0.374;2023-03-13T02:33:14;8.43;;;3.70;;
48861;SDS011;34681;49.188;-0.374;2023-03-13T02:35:41;5.97;;;3.97;;
48861;SDS011;34681;49.188;-0.374;2023-03-13T02:38:09;9.43;;;4.20;;
48861;SDS011;34681;49.188;-0.374;2023-03-13T02:40:39;7.80;;;3.70;;
48861;SDS011;34681;49.188;-0.374;2023-03-13T02:43:10;6.40;;;3.70;;
48861;SDS011;34681;49.188;-0.374;2023-03-13T02:45:39;10.60;;;4.10;;
48861;SDS011;34681;49.188;-0.374;2023-03-13T02:48:05;13.60;;;4.03;;
48861;SDS011;34681;49.188;-0.374;2023-03-13T02:50:30;13.30;;;3.90;;
48861;SDS011;34681;49.188;-0.374;2023-03-13T02:53:00;7.20;;;3.93;;
48861;SDS011;34681;49.188;-0.374;2023-03-13T02:55:34;9.07;;;4.10;;
48861;SDS011;34681;49.188;-0.374;2023-03-13T02:58:03;10.20;;;4.13;;
48861;SDS011;34681;49.188;-0.374;2023-03-13T03:00:29;10.73;;;4.33;;
48861;SDS011;34681;49.188;-0.374;2023-03-13T03:02:54;6.90;;;3.40;;
48861;SDS011;34681;49.188;-0.374;2023-03-13T03:05:20;10.73;;;4.10;;
48861;SDS011;34681;49.188;-0.374;2023-03-13T03:07:46;11.27;;;3.90;;
48861;SDS011;34681;49.188;-0.374;2023-03-13T03:10:12;11.93;;;3.87;;
48861;SDS011;34681;49.188;-0.374;2023-03-13T03:12:37;10.83;;;4.37;;
48861;SDS011;34681;49.188;-0.374;2023-03-13T03:15:03;11.63;;;4.20;;
48861;SDS011;34681;49.188;-0.374;2023-03-13T03:17:29;13.87;;;4.10;;
48861;SDS011;34681;49.188;-0.374;2023-03-13T03:19:54;13.80;;;4.53;;
48861;SDS011;34681;49.188;-0.374;2023-03-13T03:22:20;12.33;;;5.30;;
48861;SDS011;34681;49.188;-0.374;2023-03-13T03:24:45;10.10;;;3.73;;
48861;SDS011;34681;49.188;-0.374;2023-03-13T03:27:10;7.37;;;4.03;;
48861;SDS011;34681;49.188;-0.374;2023-03-13T03:29:36;5.77;;;3.43;;
48861;SDS011;34681;49.188;-0.374;2023-03-13T03:32:01;5.90;;;3.50;;
48861;SDS011;34681;49.188;-0.374;2023-03-13T03:34:26;13.40;;;4.27;;
48861;SDS011;34681;49.188;-0.374;2023-03-13T03:36:52;4.80;;;3.67;;
48861;SDS011;34681;49.188;-0.374;2023-03-13T03:39:17;7.23;;;3.27;;
48861;SDS011;34681;49.188;-0.374;2023-03-13T03:41:42;7.60;;;4.20;;
48861;SDS011;34681;49.188;-0.374;2023-03-13T03:44:08;4.90;;;3.50;;
48861;SDS011;34681;49.188;-0.374;2023-03-13T03:46:33;5.03;;;3.30;;
48861;SDS011;34681;49.188;-0.374;2023-03-13T03:48:58;7.97;;;3.63;;
48861;SDS011;34681;49.188;-0.374;2023-03-13T03:51:24;5.60;;;3.40;;
48861;SDS011;34681;49.188;-0.374;2023-03-13T03:53:49;6.27;;;3.70;;
48861;SDS011;34681;49.188;-0.374;2023-03-13T03:56:14;7.13;;;3.90;;
48861;SDS011;34681;49.188;-0.374;2023-03-13T03:58:40;7.50;;;2.83;;
48861;SDS011;34681;49.188;-0.374;2023-03-13T04:01:05;8.40;;;3.83;;
48861;SDS011;34681;49.188;-0.374;2023-03-13T04:03:31;6.03;;;3.40;;
48861;SDS011;34681;49.188;-0.374;2023-03-13T04:05:56;12.40;;;3.97;;
48861;SDS011;34681;49.188;-0.374;2023-03-13T04:08:22;6.30;;;3.60;;
48861;SDS011;34681;49.188;-0.374;2023-03-13T04:10:48;7.30;;;3.30;;
48861;SDS011;34681;49.188;-0.374;2023-03-13T04:13:13;6.30;;;3.20;;
48861;SDS011;34681;49.188;-0.374;2023-03-13T04:15:39;4.57;;;3.10;;
48861;SDS011;34681;49.188;-0.374;2023-03-13T04:18:04;5.90;;;3.17;;
48861;SDS011;34681;49.188;-0.374;2023-03-13T04:20:30;4.73;;;3.30;;
48861;SDS011;34681;49.188;-0.374;2023-03-13T04:22:55;3.30;;;2.70;;
48861;SDS011;34681;49.188;-0.374;2023-03-13T04:25:21;5.00;;;3.03;;
48861;SDS011;34681;49.188;-0.374;2023-03-13T04:27:46;3.83;;;2.47;;
48861;SDS011;34681;49.188;-0.374;2023-03-13T04:30:11;4.10;;;2.60;;
48861;SDS011;34681;49.188;-0.374;2023-03-13T04:32:37;4.50;;;2.37;;
48861;SDS011;34681;49.188;-0.374;2023-03-13T04:35:02;4.30;;;2.53;;
48861;SDS011;34681;49.188;-0.374;2023-03-13T04:37:28;4.03;;;2.20;;
48861;SDS011;34681;49.188;-0.374;2023-03-13T04:39:53;4.93;;;2.20;;
48861;SDS011;34681;49.188;-0.374;2023-03-13T04:42:18;3.80;;;2.50;;
48861;SDS011;34681;49.188;-0.374;2023-03-13T04:44:44;3.27;;;2.97;;
48861;SDS011;34681;49.188;-0.374;2023-03-13T04:47:09;2.83;;;2.07;;
48861;SDS011;34681;49.188;-0.374;2023-03-13T04:49:34;2.73;;;1.97;;
48861;SDS011;34681;49.188;-0.374;2023-03-13T04:52:00;5.07;;;1.93;;
48861;SDS011;34681;49.188;-0.374;2023-03-13T04:54:25;3.67;;;2.37;;
48861;SDS011;34681;49.188;-0.374;2023-03-13T04:56:51;2.07;;;1.90;;
48861;SDS011;34681;49.188;-0.374;2023-03-13T04:59:16;2.80;;;1.60;;
48861;SDS011;34681;49.188;-0.374;2023-03-13T05:01:42;2.90;;;2.27;;
48861;SDS011;34681;49.188;-0.374;2023-03-13T05:04:08;4.00;;;2.53;;
48861;SDS011;34681;49.188;-0.374;2023-03-13T05:06:34;2.77;;;1.80;;
48861;SDS011;34681;49.188;-0.374;2023-03-13T05:09:00;3.80;;;1.97;;
48861;SDS011;34681;49.188;-0.374;2023-03-13T05:11:26;2.70;;;2.13;;
48861;SDS011;34681;49.188;-0.374;2023-03-13T05:13:51;4.80;;;2.43;;
48861;SDS011;34681;49.188;-0.374;2023-03-13T05:16:17;1.73;;;1.63;;
48861;SDS011;34681;49.188;-0.374;2023-03-13T05:18:42;1.83;;;1.50;;
48861;SDS011;34681;49.188;-0.374;2023-03-13T05:21:08;1.70;;;1.60;;
48861;SDS011;34681;49.188;-0.374;2023-03-13T05:23:33;3.47;;;3.27;;
48861;SDS011;34681;49.188;-0.374;2023-03-13T05:25:59;3.03;;;2.73;;
48861;SDS011;34681;49.188;-0.374;2023-03-13T05:28:24;4.23;;;3.63;;
48861;SDS011;34681;49.188;-0.374;2023-03-13T05:30:50;2.47;;;2.27;;
48861;SDS011;34681;49.188;-0.374;2023-03-13T05:33:16;2.40;;;2.20;;
48861;SDS011;34681;49.188;-0.374;2023-03-13T05:35:43;1.80;;;1.70;;
48861;SDS011;34681;49.188;-0.374;2023-03-13T05:38:09;3.43;;;3.13;;
48861;SDS011;34681;49.188;-0.374;2023-03-13T05:40:34;5.07;;;2.83;;
48861;SDS011;34681;49.188;-0.374;2023-03-13T05:43:00;3.00;;;2.30;;
48861;SDS011;34681;49.188;-0.374;2023-03-13T05:45:25;2.50;;;2.30;;
48861;SDS011;34681;49.188;-0.374;2023-03-13T05:47:50;5.33;;;3.23;;
48861;SDS011;34681;49.188;-0.374;2023-03-13T05:50:16;4.97;;;2.67;;
48861;SDS011;34681;49.188;-0.374;2023-03-13T05:52:41;7.57;;;3.93;;
48861;SDS011;34681;49.188;-0.374;2023-03-13T05:55:07;8.23;;;3.70;;
48861;SDS011;34681;49.188;-0.374;2023-03-13T05:57:33;7.90;;;3.70;;
48861;SDS011;34681;49.188;-0.374;2023-03-13T05:59:58;7.90;;;3.90;;
48861;SDS011;34681;49.188;-0.374;2023-03-13T06:02:23;5.93;;;2.73;;
48861;SDS011;34681;49.188;-0.374;2023-03-13T06:04:49;4.70;;;3.27;;
48861;SDS011;34681;49.188;-0.374;2023-03-13T06:07:14;6.63;;;3.50;;
48861;SDS011;34681;49.188;-0.374;2023-03-13T06:09:40;8.93;;;4.47;;
48861;SDS011;34681;49.188;-0.374;2023-03-13T06:12:08;6.83;;;3.00;;
48861;SDS011;34681;49.188;-0.374;2023-03-13T06:14:37;10.60;;;4.50;;
48861;SDS011;34681;49.188;-0.374;2023-03-13T06:17:03;5.40;;;2.90;;
48861;SDS011;34681;49.188;-0.374;2023-03-13T06:19:29;3.50;;;2.17;;
48861;SDS011;34681;49.188;-0.374;2023-03-13T06:21:55;9.63;;;2.83;;
48861;SDS011;34681;49.188;-0.374;2023-03-13T06:24:20;10.77;;;3.83;;
48861;SDS011;34681;49.188;-0.374;2023-03-13T06:26:47;7.00;;;3.80;;
48861;SDS011;34681;49.188;-0.374;2023-03-13T06:29:12;3.63;;;2.77;;
48861;SDS011;34681;49.188;-0.374;2023-03-13T06:31:38;7.70;;;3.10;;
48861;SDS011;34681;49.188;-0.374;2023-03-13T06:34:03;11.73;;;4.37;;
48861;SDS011;34681;49.188;-0.374;2023-03-13T06:36:29;10.50;;;3.30;;
48861;SDS011;34681;49.188;-0.374;2023-03-13T06:38:54;8.43;;;3.70;;
48861;SDS011;34681;49.188;-0.374;2023-03-13T06:41:19;7.80;;;4.03;;
48861;SDS011;34681;49.188;-0.374;2023-03-13T06:43:45;8.47;;;3.67;;
48861;SDS011;34681;49.188;-0.374;2023-03-13T06:46:14;4.73;;;2.50;;
48861;SDS011;34681;49.188;-0.374;2023-03-13T06:48:45;9.73;;;3.33;;
48861;SDS011;34681;49.188;-0.374;2023-03-13T06:51:33;7.57;;;4.40;;
48861;SDS011;34681;49.188;-0.374;2023-03-13T06:54:00;10.00;;;3.60;;
48861;SDS011;34681;49.188;-0.374;2023-03-13T06:56:26;8.87;;;4.97;;
48861;SDS011;34681;49.188;-0.374;2023-03-13T06:58:51;6.30;;;2.70;;
48861;SDS011;34681;49.188;-0.374;2023-03-13T07:01:17;10.13;;;3.70;;
48861;SDS011;34681;49.188;-0.374;2023-03-13T07:03:42;4.70;;;2.40;;
48861;SDS011;34681;49.188;-0.374;2023-03-13T07:06:08;6.87;;;3.70;;
48861;SDS011;34681;49.188;-0.374;2023-03-13T07:08:35;5.00;;;2.97;;
48861;SDS011;34681;49.188;-0.374;2023-03-13T07:11:03;8.80;;;3.50;;
48861;SDS011;34681;49.188;-0.374;2023-03-13T07:13:30;7.23;;;3.93;;
48861;SDS011;34681;49.188;-0.374;2023-03-13T07:16:00;4.30;;;3.20;;
48861;SDS011;34681;49.188;-0.374;2023-03-13T07:18:30;5.30;;;3.03;;
48861;SDS011;34681;49.188;-0.374;2023-03-13T07:20:56;8.30;;;3.50;;
48861;SDS011;34681;49.188;-0.374;2023-03-13T07:23:24;6.90;;;3.13;;
48861;SDS011;34681;49.188;-0.374;2023-03-13T07:25:51;7.93;;;2.80;;
48861;SDS011;34681;49.188;-0.374;2023-03-13T07:28:21;9.73;;;3.67;;
48861;SDS011;34681;49.188;-0.374;2023-03-13T07:30:47;8.90;;;2.90;;
48861;SDS011;34681;49.188;-0.374;2023-03-13T07:33:14;7.33;;;3.07;;
48861;SDS011;34681;49.188;-0.374;2023-03-13T07:35:40;13.50;;;4.37;;
48861;SDS011;34681;49.188;-0.374;2023-03-13T07:38:05;8.20;;;3.40;;
48861;SDS011;34681;49.188;-0.374;2023-03-13T07:40:30;6.00;;;2.70;;
48861;SDS011;34681;49.188;-0.374;2023-03-13T07:42:56;9.03;;;3.13;;
48861;SDS011;34681;49.188;-0.374;2023-03-13T07:45:21;8.67;;;3.20;;
48861;SDS011;34681;49.188;-0.374;2023-03-13T07:47:46;6.50;;;3.20;;
48861;SDS011;34681;49.188;-0.374;2023-03-13T07:50:12;9.60;;;3.20;;
48861;SDS011;34681;49.188;-0.374;2023-03-13T07:52:37;9.03;;;3.40;;
48861;SDS011;34681;49.188;-0.374;2023-03-13T07:55:02;10.20;;;4.00;;
48861;SDS011;34681;49.188;-0.374;2023-03-13T07:57:28;11.70;;;4.37;;
48861;SDS011;34681;49.188;-0.374;2023-03-13T07:59:54;8.23;;;4.03;;
48861;SDS011;34681;49.188;-0.374;2023-03-13T08:02:19;11.20;;;4.30;;
48861;SDS011;34681;49.188;-0.374;2023-03-13T08:04:45;13.80;;;4.80;;
48861;SDS011;34681;49.188;-0.374;2023-03-13T08:07:10;10.43;;;4.97;;
48861;SDS011;34681;49.188;-0.374;2023-03-13T08:09:36;10.63;;;3.90;;
48861;SDS011;34681;49.188;-0.374;2023-03-13T08:12:01;8.77;;;3.40;;
48861;SDS011;34681;49.188;-0.374;2023-03-13T08:14:27;11.90;;;4.90;;
48861;SDS011;34681;49.188;-0.374;2023-03-13T08:16:52;14.67;;;4.70;;
48861;SDS011;34681;49.188;-0.374;2023-03-13T08:19:17;15.60;;;4.20;;
48861;SDS011;34681;49.188;-0.374;2023-03-13T08:21:43;13.23;;;4.77;;
48861;SDS011;34681;49.188;-0.374;2023-03-13T08:24:09;11.60;;;4.40;;
48861;SDS011;34681;49.188;-0.374;2023-03-13T08:26:38;11.80;;;4.40;;
48861;SDS011;34681;49.188;-0.374;2023-03-13T08:29:06;10.13;;;3.60;;
48861;SDS011;34681;49.188;-0.374;2023-03-13T08:31:44;17.00;;;5.43;;
48861;SDS011;34681;49.188;-0.374;2023-03-13T08:34:12;21.40;;;5.80;;
48861;SDS011;34681;49.188;-0.374;2023-03-13T08:36:38;9.83;;;3.70;;
48861;SDS011;34681;49.188;-0.374;2023-03-13T08:39:06;10.77;;;4.07;;
48861;SDS011;34681;49.188;-0.374;2023-03-13T08:41:40;15.90;;;4.90;;
48861;SDS011;34681;49.188;-0.374;2023-03-13T08:44:06;9.80;;;4.17;;
48861;SDS011;34681;49.188;-0.374;2023-03-13T08:46:34;11.13;;;4.33;;
48861;SDS011;34681;49.188;-0.374;2023-03-13T08:49:00;9.63;;;4.03;;
48861;SDS011;34681;49.188;-0.374;2023-03-13T08:51:27;9.17;;;4.40;;
48861;SDS011;34681;49.188;-0.374;2023-03-13T08:53:53;19.20;;;5.80;;
48861;SDS011;34681;49.188;-0.374;2023-03-13T08:56:23;13.00;;;4.53;;
48861;SDS011;34681;49.188;-0.374;2023-03-13T08:58:54;11.07;;;4.70;;
48861;SDS011;34681;49.188;-0.374;2023-03-13T09:01:22;16.70;;;5.07;;
48861;SDS011;34681;49.188;-0.374;2023-03-13T09:03:49;15.97;;;5.00;;
48861;SDS011;34681;49.188;-0.374;2023-03-13T09:06:15;15.90;;;5.00;;
48861;SDS011;34681;49.188;-0.374;2023-03-13T09:08:41;15.53;;;4.70;;
48861;SDS011;34681;49.188;-0.374;2023-03-13T09:11:07;20.00;;;5.00;;
48861;SDS011;34681;49.188;-0.374;2023-03-13T09:13:35;12.27;;;4.20;;
48861;SDS011;34681;49.188;-0.374;2023-03-13T09:16:04;10.43;;;4.70;;
48861;SDS011;34681;49.188;-0.374;2023-03-13T09:18:31;14.00;;;4.43;;
48861;SDS011;34681;49.188;-0.374;2023-03-13T09:20:57;12.97;;;4.80;;
48861;SDS011;34681;49.188;-0.374;2023-03-13T09:23:23;12.27;;;4.50;;
48861;SDS011;34681;49.188;-0.374;2023-03-13T09:25:51;19.03;;;5.37;;
48861;SDS011;34681;49.188;-0.374;2023-03-13T09:28:17;15.43;;;5.73;;
48861;SDS011;34681;49.188;-0.374;2023-03-13T09:30:43;13.50;;;4.63;;
48861;SDS011;34681;49.188;-0.374;2023-03-13T09:33:09;11.80;;;4.60;;
48861;SDS011;34681;49.188;-0.374;2023-03-13T09:35:36;18.60;;;5.20;;
48861;SDS011;34681;49.188;-0.374;2023-03-13T09:38:03;11.23;;;4.40;;
48861;SDS011;34681;49.188;-0.374;2023-03-13T09:40:28;11.50;;;4.83;;
48861;SDS011;34681;49.188;-0.374;2023-03-13T09:42:55;9.57;;;5.00;;
48861;SDS011;34681;49.188;-0.374;2023-03-13T09:45:30;13.47;;;5.37;;
48861;SDS011;34681;49.188;-0.374;2023-03-13T09:48:05;13.60;;;4.80;;
48861;SDS011;34681;49.188;-0.374;2023-03-13T09:50:52;19.47;;;5.87;;
48861;SDS011;34681;49.188;-0.374;2023-03-13T09:53:26;13.07;;;4.67;;
48861;SDS011;34681;49.188;-0.374;2023-03-13T09:55:57;14.33;;;5.47;;
48861;SDS011;34681;49.188;-0.374;2023-03-13T09:58:23;25.00;;;6.40;;
48861;SDS011;34681;49.188;-0.374;2023-03-13T10:01:02;15.03;;;5.37;;
48861;SDS011;34681;49.188;-0.374;2023-03-13T10:03:30;12.17;;;4.20;;
48861;SDS011;34681;49.188;-0.374;2023-03-13T10:06:05;14.40;;;5.40;;
48861;SDS011;34681;49.188;-0.374;2023-03-13T10:08:39;12.17;;;4.80;;
48861;SDS011;34681;49.188;-0.374;2023-03-13T10:11:11;12.20;;;4.57;;
48861;SDS011;34681;49.188;-0.374;2023-03-13T10:16:43;14.57;;;4.30;;
48861;SDS011;34681;49.188;-0.374;2023-03-13T10:19:39;12.13;;;5.13;;
48861;SDS011;34681;49.188;-0.374;2023-03-13T10:22:27;11.53;;;4.37;;
48861;SDS011;34681;49.188;-0.374;2023-03-13T10:25:10;12.77;;;4.43;;
48861;SDS011;34681;49.188;-0.374;2023-03-13T10:27:49;16.87;;;4.40;;
48861;SDS011;34681;49.188;-0.374;2023-03-13T10:30:22;7.33;;;4.37;;
48861;SDS011;34681;49.188;-0.374;2023-03-13T10:32:59;7.10;;;3.80;;
48861;SDS011;34681;49.188;-0.374;2023-03-13T10:35:41;17.20;;;4.30;;
48861;SDS011;34681;49.188;-0.374;2023-03-13T10:38:09;17.93;;;5.13;;
48861;SDS011;34681;49.188;-0.374;2023-03-13T10:40:36;12.90;;;4.80;;
48861;SDS011;34681;49.188;-0.374;2023-03-13T10:43:04;13.80;;;4.10;;
48861;SDS011;34681;49.188;-0.374;2023-03-13T10:45:33;15.20;;;5.33;;
48861;SDS011;34681;49.188;-0.374;2023-03-13T10:48:10;9.50;;;3.87;;
48861;SDS011;34681;49.188;-0.374;2023-03-13T10:50:37;17.23;;;4.87;;
48861;SDS011;34681;49.188;-0.374;2023-03-13T10:53:21;11.17;;;4.53;;
48861;SDS011;34681;49.188;-0.374;2023-03-13T10:55:57;14.50;;;4.27;;
48861;SDS011;34681;49.188;-0.374;2023-03-13T10:59:01;14.60;;;4.00;;
48861;SDS011;34681;49.188;-0.374;2023-03-13T11:01:21;13.43;;;5.03;;
48861;SDS011;34681;49.188;-0.374;2023-03-13T11:03:50;13.07;;;4.50;;
48861;SDS011;34681;49.188;-0.374;2023-03-13T11:06:51;13.77;;;4.70;;
48861;SDS011;34681;49.188;-0.374;2023-03-13T11:09:15;13.40;;;4.10;;
48861;SDS011;34681;49.188;-0.374;2023-03-13T11:11:54;15.73;;;5.10;;
48861;SDS011;34681;49.188;-0.374;2023-03-13T11:14:26;15.70;;;5.00;;
48861;SDS011;34681;49.188;-0.374;2023-03-13T11:16:55;7.63;;;4.23;;
48861;SDS011;34681;49.188;-0.374;2023-03-13T11:27:37;9.80;;;4.23;;
48861;SDS011;34681;49.188;-0.374;2023-03-13T11:33:11;14.73;;;5.27;;
48861;SDS011;34681;49.188;-0.374;2023-03-13T11:38:30;17.73;;;4.83;;
48861;SDS011;34681;49.188;-0.374;2023-03-13T11:41:21;13.10;;;4.53;;
48861;SDS011;34681;49.188;-0.374;2023-03-13T11:49:56;10.43;;;4.17;;
48861;SDS011;34681;49.188;-0.374;2023-03-13T11:52:47;18.33;;;5.10;;
48861;SDS011;34681;49.188;-0.374;2023-03-13T11:55:27;14.27;;;5.40;;
48861;SDS011;34681;49.188;-0.374;2023-03-13T12:03:33;13.20;;;4.83;;
48861;SDS011;34681;49.188;-0.374;2023-03-13T12:06:03;19.33;;;5.60;;
48861;SDS011;34681;49.188;-0.374;2023-03-13T12:08:43;13.40;;;4.60;;
48861;SDS011;34681;49.188;-0.374;2023-03-13T12:11:30;14.23;;;4.83;;
48861;SDS011;34681;49.188;-0.374;2023-03-13T12:14:01;15.80;;;4.87;;
48861;SDS011;34681;49.188;-0.374;2023-03-13T12:16:38;13.50;;;5.70;;
48861;SDS011;34681;49.188;-0.374;2023-03-13T12:19:11;17.27;;;5.87;;
48861;SDS011;34681;49.188;-0.374;2023-03-13T12:21:48;15.00;;;4.97;;
48861;SDS011;34681;49.188;-0.374;2023-03-13T12:27:12;12.73;;;4.63;;
48861;SDS011;34681;49.188;-0.374;2023-03-13T12:30:39;14.27;;;4.97;;
48861;SDS011;34681;49.188;-0.374;2023-03-13T12:33:12;13.73;;;5.33;;
48861;SDS011;34681;49.188;-0.374;2023-03-13T12:35:44;11.17;;;4.03;;
48861;SDS011;34681;49.188;-0.374;2023-03-13T12:38:22;16.10;;;5.30;;
48861;SDS011;34681;49.188;-0.374;2023-03-13T12:43:44;16.90;;;5.37;;
48861;SDS011;34681;49.188;-0.374;2023-03-13T12:49:09;19.07;;;4.60;;
48861;SDS011;34681;49.188;-0.374;2023-03-13T12:59:55;9.57;;;4.63;;
48861;SDS011;34681;49.188;-0.374;2023-03-13T13:02:29;11.83;;;4.00;;
48861;SDS011;34681;49.188;-0.374;2023-03-13T13:04:56;11.93;;;3.80;;
48861;SDS011;34681;49.188;-0.374;2023-03-13T13:07:24;10.60;;;4.20;;
48861;SDS011;34681;49.188;-0.374;2023-03-13T13:09:59;13.00;;;4.60;;
48861;SDS011;34681;49.188;-0.374;2023-03-13T13:12:37;12.80;;;3.67;;
48861;SDS011;34681;49.188;-0.374;2023-03-13T13:15:38;10.83;;;4.30;;
48861;SDS011;34681;49.188;-0.374;2023-03-13T13:20:48;9.43;;;4.17;;
48861;SDS011;34681;49.188;-0.374;2023-03-13T13:23:39;12.57;;;4.40;;
48861;SDS011;34681;49.188;-0.374;2023-03-13T13:28:53;11.20;;;4.70;;
48861;SDS011;34681;49.188;-0.374;2023-03-13T13:36:52;8.70;;;3.50;;
48861;SDS011;34681;49.188;-0.374;2023-03-13T13:41:52;10.10;;;4.23;;
48861;SDS011;34681;49.188;-0.374;2023-03-13T13:44:20;11.67;;;3.90;;
48861;SDS011;34681;49.188;-0.374;2023-03-13T13:46:47;11.10;;;4.03;;
48861;SDS011;34681;49.188;-0.374;2023-03-13T13:49:13;13.77;;;3.97;;
48861;SDS011;34681;49.188;-0.374;2023-03-13T13:51:41;8.57;;;4.03;;
48861;SDS011;34681;49.188;-0.374;2023-03-13T13:56:57;7.53;;;3.70;;
48861;SDS011;34681;49.188;-0.374;2023-03-13T14:04:42;16.17;;;4.47;;
48861;SDS011;34681;49.188;-0.374;2023-03-13T14:07:11;8.63;;;3.30;;
48861;SDS011;34681;49.188;-0.374;2023-03-13T14:09:51;14.07;;;3.90;;
48861;SDS011;34681;49.188;-0.374;2023-03-13T14:12:28;6.33;;;3.50;;
48861;SDS011;34681;49.188;-0.374;2023-03-13T14:15:39;8.80;;;3.53;;
48861;SDS011;34681;49.188;-0.374;2023-03-13T14:20:26;11.37;;;3.97;;
48861;SDS011;34681;49.188;-0.374;2023-03-13T14:23:06;13.17;;;4.30;;
48861;SDS011;34681;49.188;-0.374;2023-03-13T14:25:47;8.47;;;3.80;;
48861;SDS011;34681;49.188;-0.374;2023-03-13T14:28:18;15.97;;;5.97;;
48861;SDS011;34681;49.188;-0.374;2023-03-13T14:30:46;8.80;;;4.30;;
48861;SDS011;34681;49.188;-0.374;2023-03-13T14:33:13;12.20;;;4.03;;
48861;SDS011;34681;49.188;-0.374;2023-03-13T14:35:39;9.03;;;3.63;;
48861;SDS011;34681;49.188;-0.374;2023-03-13T14:38:04;11.10;;;4.47;;
48861;SDS011;34681;49.188;-0.374;2023-03-13T14:40:30;9.73;;;3.90;;
48861;SDS011;34681;49.188;-0.374;2023-03-13T14:43:00;8.47;;;3.87;;
48861;SDS011;34681;49.188;-0.374;2023-03-13T14:45:28;13.13;;;3.53;;
48861;SDS011;34681;49.188;-0.374;2023-03-13T14:48:00;7.53;;;4.17;;
48861;SDS011;34681;49.188;-0.374;2023-03-13T14:50:27;12.30;;;3.73;;
48861;SDS011;34681;49.188;-0.374;2023-03-13T14:52:58;10.57;;;3.73;;
48861;SDS011;34681;49.188;-0.374;2023-03-13T14:55:29;8.60;;;3.97;;
48861;SDS011;34681;49.188;-0.374;2023-03-13T14:58:03;9.23;;;3.70;;
48861;SDS011;34681;49.188;-0.374;2023-03-13T15:00:45;8.60;;;4.10;;
48861;SDS011;34681;49.188;-0.374;2023-03-13T15:05:49;10.00;;;3.73;;
48861;SDS011;34681;49.188;-0.374;2023-03-13T15:08:36;6.57;;;2.97;;
48861;SDS011;34681;49.188;-0.374;2023-03-13T15:11:51;5.97;;;3.20;;
48861;SDS011;34681;49.188;-0.374;2023-03-13T15:13:56;8.47;;;3.67;;
48861;SDS011;34681;49.188;-0.374;2023-03-13T15:16:22;11.93;;;4.50;;
48861;SDS011;34681;49.188;-0.374;2023-03-13T15:18:49;7.93;;;3.50;;
48861;SDS011;34681;49.188;-0.374;2023-03-13T15:23:51;7.17;;;3.33;;
48861;SDS011;34681;49.188;-0.374;2023-03-13T15:26:19;12.00;;;3.60;;
48861;SDS011;34681;49.188;-0.374;2023-03-13T15:28:45;10.60;;;3.87;;
48861;SDS011;34681;49.188;-0.374;2023-03-13T15:31:11;10.57;;;4.20;;
48861;SDS011;34681;49.188;-0.374;2023-03-13T15:33:38;5.50;;;3.53;;
48861;SDS011;34681;49.188;-0.374;2023-03-13T15:36:04;8.30;;;4.13;;
48861;SDS011;34681;49.188;-0.374;2023-03-13T15:38:30;8.00;;;3.50;;
48861;SDS011;34681;49.188;-0.374;2023-03-13T15:40:55;8.50;;;3.90;;
48861;SDS011;34681;49.188;-0.374;2023-03-13T15:43:21;9.10;;;3.80;;
48861;SDS011;34681;49.188;-0.374;2023-03-13T15:45:47;10.00;;;3.77;;
48861;SDS011;34681;49.188;-0.374;2023-03-13T15:48:17;9.20;;;3.67;;
48861;SDS011;34681;49.188;-0.374;2023-03-13T15:50:43;8.80;;;4.10;;
48861;SDS011;34681;49.188;-0.374;2023-03-13T15:53:17;8.10;;;3.70;;
48861;SDS011;34681;49.188;-0.374;2023-03-13T15:55:44;7.97;;;3.80;;
48861;SDS011;34681;49.188;-0.374;2023-03-13T15:58:11;9.50;;;3.60;;
48861;SDS011;34681;49.188;-0.374;2023-03-13T16:00:37;12.67;;;4.00;;
48861;SDS011;34681;49.188;-0.374;2023-03-13T16:03:03;14.77;;;3.73;;
48861;SDS011;34681;49.188;-0.374;2023-03-13T16:05:29;12.63;;;4.93;;